Time;durP1;ratioP1;P1;durP2;ratioP2;P2;SDS_P1;SDS_P2;PMS_P1;PMS_P2;Temp;Humidity;BMP_temperature;BMP_pressure;BME280_temperature;BME280_humidity;BME280_pressure;Samples;Min_cycle;Max_cycle;Signal;HPM_P1;HPM_P2
2022/01/29 00:01:57;;;;;;;40.88;17.80;;;4.10;99.90;;;;;;5061672;28;20376;-74
2022/01/29 00:04:23;;;;;;;25.13;9.98;;;4.00;99.90;;;;;;5063374;28;20029;-75
2022/01/29 00:06:49;;;;;;;32.00;12.63;;;4.00;99.90;;;;;;5062399;28;20039;-75
2022/01/29 00:09:15;;;;;;;28.52;11.43;;;4.10;99.90;;;;;;5061127;28;20036;-76
2022/01/29 00:11:42;;;;;;;27.05;9.30;;;4.10;99.90;;;;;;5061445;28;20032;-76
2022/01/29 00:14:09;;;;;;;27.05;11.93;;;4.10;99.90;;;;;;5062029;28;20407;-75
2022/01/29 00:16:35;;;;;;;19.52;8.40;;;4.10;99.90;;;;;;5063481;28;20020;-76
2022/01/29 00:19:01;;;;;;;22.77;9.55;;;4.00;99.90;;;;;;5061294;28;20099;-76
2022/01/29 00:21:26;;;;;;;20.75;8.93;;;4.00;99.90;;;;;;5062833;28;20502;-76
2022/01/29 00:23:52;;;;;;;32.35;11.57;;;4.00;99.90;;;;;;5044589;28;20391;-76
2022/01/29 00:26:21;;;;;;;22.20;8.55;;;4.00;99.90;;;;;;5081397;28;20402;-76
2022/01/29 00:28:51;;;;;;;30.83;11.70;;;3.90;99.90;;;;;;5082305;28;20079;-76
2022/01/29 00:31:17;;;;;;;34.65;13.23;;;3.90;99.90;;;;;;5083224;28;20024;-76
2022/01/29 00:33:42;;;;;;;37.13;14.35;;;3.90;99.90;;;;;;5080770;28;20024;-76
2022/01/29 00:36:08;;;;;;;35.72;12.80;;;3.90;99.90;;;;;;5082790;28;20421;-76
2022/01/29 00:38:35;;;;;;;31.52;10.63;;;3.80;99.90;;;;;;5081452;28;20490;-76
2022/01/29 00:41:02;;;;;;;25.20;8.68;;;3.80;99.90;;;;;;5081672;28;20078;-76
2022/01/29 00:43:28;;;;;;;26.95;10.10;;;3.80;99.90;;;;;;5082368;28;20020;-76
2022/01/29 00:45:54;;;;;;;28.77;9.85;;;3.80;99.90;;;;;;5082955;28;20075;-77
2022/01/29 00:48:20;;;;;;;36.50;13.20;;;3.80;99.90;;;;;;5081519;28;20044;-76
2022/01/29 00:50:46;;;;;;;30.92;11.48;;;3.80;99.90;;;;;;5080865;28;20055;-77
2022/01/29 00:53:12;;;;;;;36.53;12.35;;;3.80;99.90;;;;;;5083354;28;20020;-75
2022/01/29 00:55:40;;;;;;;35.92;13.60;;;3.80;99.90;;;;;;5081038;28;20078;-76
2022/01/29 00:58:06;;;;;;;33.85;12.07;;;3.70;99.90;;;;;;5082035;28;20024;-76
2022/01/29 01:00:32;;;;;;;33.47;11.13;;;3.70;99.90;;;;;;5083306;28;20028;-76
2022/01/29 01:02:58;;;;;;;32.70;11.07;;;3.70;99.90;;;;;;5080972;28;20024;-75
2022/01/29 01:05:24;;;;;;;35.55;11.82;;;3.60;99.90;;;;;;5082384;28;20031;-76
2022/01/29 01:07:49;;;;;;;33.83;12.15;;;3.70;99.90;;;;;;5081359;28;20036;-76
2022/01/29 01:10:15;;;;;;;36.70;13.52;;;3.60;99.90;;;;;;5081060;28;20024;-76
2022/01/29 01:12:41;;;;;;;32.25;12.77;;;3.60;99.90;;;;;;5082493;28;20012;-76
2022/01/29 01:15:08;;;;;;;31.30;11.32;;;3.50;99.90;;;;;;5082106;28;20067;-75
2022/01/29 01:17:34;;;;;;;34.08;11.88;;;3.50;99.90;;;;;;5081118;28;20032;-76
2022/01/29 01:20:00;;;;;;;39.35;14.60;;;3.50;99.90;;;;;;5084022;28;20355;-76
2022/01/29 01:22:25;;;;;;;31.20;12.38;;;3.50;99.90;;;;;;5085490;28;20017;-76
2022/01/29 01:24:51;;;;;;;31.17;12.70;;;3.40;99.90;;;;;;5076976;28;20494;-77
2022/01/29 01:27:17;;;;;;;30.73;11.98;;;3.40;99.90;;;;;;5066049;28;20021;-76
2022/01/29 01:29:43;;;;;;;20.35;8.30;;;3.40;99.90;;;;;;5047249;28;20068;-76
2022/01/29 01:32:12;;;;;;;25.23;9.13;;;3.40;99.90;;;;;;5065214;28;20024;-76
2022/01/29 01:34:51;;;;;;;30.77;10.23;;;3.40;99.90;;;;;;5066292;28;20020;-76
2022/01/29 01:37:31;;;;;;;28.30;10.32;;;3.40;99.90;;;;;;5066549;28;20078;-76
2022/01/29 01:39:58;;;;;;;24.15;9.70;;;3.40;99.90;;;;;;5066182;28;20021;-76
2022/01/29 01:42:24;;;;;;;30.13;9.23;;;3.30;99.90;;;;;;5064918;28;20423;-76
2022/01/29 01:44:52;;;;;;;18.52;7.32;;;3.40;99.90;;;;;;5064946;28;20017;-76
2022/01/29 01:47:18;;;;;;;22.25;7.25;;;3.40;99.90;;;;;;5065969;28;20155;-76
2022/01/29 01:49:44;;;;;;;16.88;6.55;;;3.40;99.90;;;;;;5064734;28;20120;-76
2022/01/29 01:52:12;;;;;;;23.92;10.85;;;3.40;99.90;;;;;;5064984;28;20032;-76
2022/01/29 01:54:39;;;;;;;28.90;11.32;;;3.30;99.90;;;;;;5066183;28;20013;-76
2022/01/29 01:57:05;;;;;;;25.85;8.07;;;3.40;99.90;;;;;;5064780;28;20036;-76
2022/01/29 01:59:31;;;;;;;24.55;8.68;;;3.30;99.90;;;;;;5064705;28;20038;-76
2022/01/29 02:01:57;;;;;;;28.52;11.32;;;3.30;99.90;;;;;;5058352;28;20099;-76
2022/01/29 02:04:23;;;;;;;31.05;10.82;;;3.30;99.90;;;;;;5056216;28;20029;-76
2022/01/29 02:06:53;;;;;;;28.17;10.85;;;3.30;99.90;;;;;;5056353;28;20036;-76
2022/01/29 02:09:21;;;;;;;26.50;10.43;;;3.30;99.90;;;;;;5038248;28;20053;-76
2022/01/29 02:11:55;;;;;;;25.75;9.57;;;3.30;99.90;;;;;;5056030;28;20033;-77
2022/01/29 02:14:29;;;;;;;28.65;10.30;;;3.30;99.90;;;;;;5056445;28;20075;-75
2022/01/29 02:16:55;;;;;;;21.65;7.45;;;3.30;99.90;;;;;;5055931;28;20083;-76
2022/01/29 02:19:21;;;;;;;18.00;7.00;;;3.30;99.90;;;;;;5055984;28;20024;-75
2022/01/29 02:21:47;;;;;;;18.45;5.32;;;3.30;99.90;;;;;;5055876;28;20040;-76
2022/01/29 02:24:13;;;;;;;15.55;4.82;;;3.40;99.90;;;;;;5055634;28;20047;-76
2022/01/29 02:26:40;;;;;;;18.33;5.25;;;3.40;99.90;;;;;;5055829;28;20024;-76
2022/01/29 02:29:06;;;;;;;15.65;5.22;;;3.50;99.90;;;;;;5055733;28;20029;-76
2022/01/29 02:31:32;;;;;;;18.55;5.53;;;3.50;99.90;;;;;;5055277;28;20475;-76
2022/01/29 02:33:58;;;;;;;15.88;5.38;;;3.50;99.90;;;;;;5055927;28;20021;-75
2022/01/29 02:36:24;;;;;;;15.27;4.90;;;3.50;99.90;;;;;;5055459;28;20144;-76
2022/01/29 02:38:50;;;;;;;16.30;5.45;;;3.50;99.90;;;;;;5055587;28;20032;-76
2022/01/29 02:41:16;;;;;;;18.15;5.63;;;3.50;99.90;;;;;;5037884;28;20029;-76
2022/01/29 02:46:30;;;;;;;14.20;4.18;;;3.50;99.90;;;;;;5055575;28;20036;-76
2022/01/29 02:48:57;;;;;;;23.25;4.45;;;3.50;99.90;;;;;;5055699;28;20032;-76
2022/01/29 02:51:23;;;;;;;15.45;4.80;;;3.50;99.90;;;;;;5055349;28;20031;-76
2022/01/29 02:53:49;;;;;;;13.90;4.47;;;3.50;99.90;;;;;;5055250;28;20387;-76
2022/01/29 02:56:15;;;;;;;10.85;3.30;;;3.50;99.90;;;;;;5055491;28;20039;-76
2022/01/29 02:58:41;;;;;;;11.48;3.97;;;3.50;99.90;;;;;;5055122;28;20025;-76
2022/01/29 03:01:09;;;;;;;14.30;3.85;;;3.40;99.90;;;;;;5055478;28;20112;-76
2022/01/29 03:03:35;;;;;;;14.38;4.60;;;3.40;99.90;;;;;;5055252;28;20029;-76
2022/01/29 03:06:08;;;;;;;21.33;5.82;;;3.40;99.90;;;;;;5055063;28;20033;-75
2022/01/29 03:08:34;;;;;;;13.43;3.97;;;3.40;99.90;;;;;;5055327;28;20029;-75
2022/01/29 03:11:00;;;;;;;13.73;4.68;;;3.40;99.90;;;;;;5054939;28;20025;-75
2022/01/29 03:13:26;;;;;;;15.43;4.43;;;3.40;99.90;;;;;;5055215;28;20024;-75
2022/01/29 03:15:52;;;;;;;13.07;4.55;;;3.40;99.90;;;;;;5054869;28;20039;-76
2022/01/29 03:18:17;;;;;;;15.52;4.63;;;3.40;99.90;;;;;;5054838;28;20036;-75
2022/01/29 03:20:43;;;;;;;15.02;4.22;;;3.40;99.90;;;;;;5055058;28;20087;-76
2022/01/29 03:23:09;;;;;;;15.10;4.10;;;3.40;99.90;;;;;;5055243;28;20032;-76
2022/01/29 03:25:35;;;;;;;11.75;3.28;;;3.40;99.90;;;;;;5054283;28;20048;-75
2022/01/29 03:28:00;;;;;;;14.85;4.03;;;3.40;99.90;;;;;;5054936;28;20025;-74
2022/01/29 03:30:26;;;;;;;15.52;3.92;;;3.40;99.90;;;;;;5054863;28;20025;-73
2022/01/29 03:32:52;;;;;;;16.35;5.00;;;3.40;99.90;;;;;;5054759;28;20452;-74
2022/01/29 03:35:18;;;;;;;13.68;4.25;;;3.40;99.90;;;;;;5054806;28;20075;-73
2022/01/29 03:37:43;;;;;;;13.77;3.67;;;3.30;99.90;;;;;;5054740;28;20040;-74
2022/01/29 03:40:10;;;;;;;20.77;5.07;;;3.30;99.90;;;;;;5054056;28;20029;-74
2022/01/29 03:42:43;;;;;;;18.38;4.82;;;3.30;99.90;;;;;;5054097;28;20495;-74
2022/01/29 03:45:10;;;;;;;23.50;4.95;;;3.30;99.90;;;;;;5054780;28;20027;-74
2022/01/29 03:47:36;;;;;;;21.60;4.15;;;3.30;99.90;;;;;;5053986;28;20029;-73
2022/01/29 03:50:02;;;;;;;14.98;4.05;;;3.30;99.90;;;;;;5054482;28;20025;-74
2022/01/29 03:52:28;;;;;;;18.65;3.67;;;3.30;99.90;;;;;;5054422;28;20025;-73
2022/01/29 03:54:54;;;;;;;15.65;2.88;;;3.30;99.90;;;;;;5053849;28;20029;-73
2022/01/29 03:57:20;;;;;;;13.90;3.90;;;3.30;99.90;;;;;;5054110;28;20033;-73
2022/01/29 03:59:46;;;;;;;13.18;3.90;;;3.30;99.90;;;;;;5053736;28;20025;-74
2022/01/29 04:02:11;;;;;;;12.63;3.53;;;3.20;99.90;;;;;;5054084;28;20101;-74
2022/01/29 04:04:37;;;;;;;10.80;3.80;;;3.20;99.90;;;;;;5053971;28;20083;-75
2022/01/29 04:07:09;;;;;;;13.82;4.30;;;3.20;99.90;;;;;;5035905;28;20040;-74
2022/01/29 04:09:35;;;;;;;18.23;5.05;;;3.20;99.90;;;;;;5054322;28;20032;-74
2022/01/29 04:12:02;;;;;;;17.88;4.50;;;3.20;99.90;;;;;;5053881;28;20036;-74
2022/01/29 04:14:34;;;;;;;19.35;5.13;;;3.20;99.90;;;;;;5053805;28;20052;-74
2022/01/29 04:17:00;;;;;;;12.18;4.22;;;3.20;99.90;;;;;;5054638;28;20032;-74
2022/01/29 04:19:26;;;;;;;16.70;4.50;;;3.10;99.90;;;;;;5054060;28;20017;-73
2022/01/29 04:21:52;;;;;;;13.20;4.30;;;3.10;99.90;;;;;;5053934;28;20021;-73
2022/01/29 04:24:17;;;;;;;17.20;4.50;;;3.10;99.90;;;;;;5053855;28;20041;-74
2022/01/29 04:26:44;;;;;;;16.23;4.40;;;3.10;99.90;;;;;;5053606;28;20033;-74
2022/01/29 04:29:11;;;;;;;17.58;4.28;;;3.10;99.90;;;;;;5053779;28;20021;-74
2022/01/29 04:34:21;;;;;;;16.13;4.60;;;3.00;99.90;;;;;;5053655;28;20162;-74
2022/01/29 04:36:47;;;;;;;12.55;4.20;;;3.00;99.90;;;;;;5053771;28;20036;-74
2022/01/29 04:39:13;;;;;;;17.05;4.78;;;3.00;99.90;;;;;;5053570;28;20029;-74
2022/01/29 04:41:39;;;;;;;15.75;5.30;;;3.00;99.90;;;;;;5053474;28;20475;-73
2022/01/29 04:44:06;;;;;;;24.00;5.82;;;3.00;99.90;;;;;;5053469;28;20102;-73
2022/01/29 04:46:32;;;;;;;25.45;7.10;;;2.90;99.90;;;;;;5053857;28;20119;-73
2022/01/29 04:48:58;;;;;;;26.83;6.85;;;2.90;99.90;;;;;;5053047;28;20100;-74
2022/01/29 04:51:24;;;;;;;20.10;5.72;;;2.90;99.90;;;;;;5053337;28;20036;-74
2022/01/29 04:53:49;;;;;;;22.60;5.57;;;2.90;99.90;;;;;;5053934;28;20068;-74
2022/01/29 04:56:15;;;;;;;19.38;5.65;;;2.90;99.90;;;;;;5057268;28;20036;-74
2022/01/29 04:58:41;;;;;;;20.48;4.65;;;2.80;99.90;;;;;;5057775;28;20032;-73
2022/01/29 05:01:07;;;;;;;16.40;4.70;;;2.80;99.90;;;;;;5057565;28;20095;-74
2022/01/29 05:03:33;;;;;;;20.52;4.97;;;2.80;99.90;;;;;;5039408;28;20448;-73
2022/01/29 05:06:00;;;;;;;23.90;6.28;;;2.80;99.90;;;;;;5057554;28;20029;-73
2022/01/29 05:08:26;;;;;;;26.15;7.88;;;2.80;99.90;;;;;;5057217;28;20383;-73
2022/01/29 05:10:54;;;;;;;29.27;7.88;;;2.70;99.90;;;;;;5056897;28;20032;-74
2022/01/29 05:13:24;;;;;;;33.88;10.90;;;2.70;99.90;;;;;;5057499;28;20040;-74
2022/01/29 05:26:56;;;;;;;26.48;9.73;;;2.60;99.90;;;;;;5056973;28;20079;-73
2022/01/29 05:29:22;;;;;;;37.05;12.45;;;2.60;99.90;;;;;;5057336;28;20083;-73
2022/01/29 05:31:51;;;;;;;38.63;10.57;;;2.60;99.90;;;;;;5056791;28;20465;-73
2022/01/29 05:34:20;;;;;;;51.47;16.23;;;2.60;99.90;;;;;;5056777;28;20021;-74
2022/01/29 05:36:46;;;;;;;46.67;14.07;;;2.50;99.90;;;;;;5039370;28;20025;-73
2022/01/29 05:39:12;;;;;;;45.10;14.93;;;2.50;99.90;;;;;;5056723;28;20082;-73
2022/01/29 05:41:38;;;;;;;28.40;9.77;;;2.50;99.90;;;;;;5039061;28;20379;-73
2022/01/29 05:44:04;;;;;;;25.38;7.60;;;2.50;99.90;;;;;;5056629;28;20029;-73
2022/01/29 05:46:30;;;;;;;37.85;11.13;;;2.50;99.90;;;;;;5056223;28;20104;-74
2022/01/29 05:48:55;;;;;;;38.72;8.20;;;2.50;99.90;;;;;;5056429;28;20037;-74
2022/01/29 05:51:21;;;;;;;34.67;7.82;;;2.40;99.90;;;;;;5056873;28;20021;-73
2022/01/29 05:53:47;;;;;;;43.95;13.52;;;2.40;99.90;;;;;;5056130;28;20032;-73
2022/01/29 05:56:13;;;;;;;40.53;11.25;;;2.30;99.90;;;;;;5056800;28;20053;-73
2022/01/29 05:58:38;;;;;;;58.67;17.92;;;2.30;99.90;;;;;;5056343;28;20021;-73
2022/01/29 06:01:05;;;;;;;49.17;16.77;;;2.30;99.90;;;;;;5056319;28;20029;-74
2022/01/29 06:03:31;;;;;;;49.53;17.75;;;2.30;99.90;;;;;;5038749;28;20028;-74
2022/01/29 06:05:56;;;;;;;49.35;17.73;;;2.30;99.90;;;;;;5054966;28;20052;-73
2022/01/29 06:08:22;;;;;;;27.98;11.05;;;2.30;99.90;;;;;;5056354;28;20352;-73
2022/01/29 06:10:48;;;;;;;22.70;7.93;;;2.30;99.90;;;;;;5056106;28;20029;-73
2022/01/29 06:13:15;;;;;;;26.23;8.07;;;2.20;99.90;;;;;;5055852;28;20065;-73
2022/01/29 06:15:47;;;;;;;22.20;7.43;;;2.20;99.90;;;;;;5056046;28;20048;-73
2022/01/29 06:18:17;;;;;;;30.23;9.82;;;2.20;99.90;;;;;;5056132;28;20067;-73
2022/01/29 06:20:45;;;;;;;26.13;8.73;;;2.20;99.90;;;;;;5056000;28;20027;-73
2022/01/29 06:23:12;;;;;;;33.80;12.10;;;2.20;99.90;;;;;;5056394;28;20455;-73
2022/01/29 06:25:38;;;;;;;42.15;14.52;;;2.20;99.90;;;;;;5056246;28;20391;-73
2022/01/29 06:28:04;;;;;;;46.85;14.85;;;2.20;99.90;;;;;;5055764;28;20032;-73
2022/01/29 06:30:31;;;;;;;51.55;17.95;;;2.20;99.90;;;;;;5055754;28;20021;-73
2022/01/29 06:32:57;;;;;;;46.38;20.42;;;2.20;99.90;;;;;;5055992;28;20100;-73
2022/01/29 06:35:23;;;;;;;71.85;29.05;;;2.20;99.90;;;;;;5055428;28;20048;-73
2022/01/29 06:37:48;;;;;;;81.93;36.25;;;2.20;99.90;;;;;;5054216;28;20460;-74
2022/01/29 06:40:15;;;;;;;69.60;31.73;;;2.10;99.90;;;;;;5054208;28;20040;-73
2022/01/29 06:42:40;;;;;;;69.57;25.75;;;2.10;99.90;;;;;;5054458;28;20037;-73
2022/01/29 06:45:07;;;;;;;69.25;30.90;;;2.10;99.90;;;;;;5055130;28;20025;-73
2022/01/29 06:47:33;;;;;;;82.85;38.67;;;2.10;99.90;;;;;;5054987;28;20025;-73
2022/01/29 06:49:59;;;;;;;47.35;19.60;;;2.10;99.90;;;;;;5055522;28;20078;-73
2022/01/29 06:52:26;;;;;;;43.38;18.95;;;2.10;99.90;;;;;;5055347;28;20040;-73
2022/01/29 06:54:52;;;;;;;38.22;15.25;;;2.20;99.90;;;;;;5055274;28;20095;-73
2022/01/29 06:57:17;;;;;;;37.55;15.15;;;2.20;99.90;;;;;;5055681;28;20470;-73
2022/01/29 06:59:43;;;;;;;31.33;12.82;;;2.20;99.90;;;;;;5055229;28;20029;-73
2022/01/29 07:02:09;;;;;;;34.92;13.65;;;2.10;99.90;;;;;;5055230;28;20021;-73
2022/01/29 07:04:35;;;;;;;59.17;21.73;;;2.10;99.90;;;;;;5037475;28;20033;-73
2022/01/29 07:07:00;;;;;;;76.18;31.70;;;2.10;99.90;;;;;;5054960;28;20040;-74
2022/01/29 07:09:26;;;;;;;76.53;30.60;;;2.40;99.90;;;;;;5055081;28;20037;-74
2022/01/29 07:11:59;;;;;;;67.30;28.35;;;3.00;99.90;;;;;;5054944;28;20021;-74
2022/01/29 07:14:25;;;;;;;71.40;30.15;;;3.40;99.90;;;;;;5055061;28;20032;-74
2022/01/29 07:16:51;;;;;;;80.47;30.00;;;3.80;99.90;;;;;;5054324;28;20357;-74
2022/01/29 07:19:16;;;;;;;60.83;26.88;;;4.00;99.90;;;;;;5055239;28;20025;-74
2022/01/29 07:21:42;;;;;;;78.03;33.78;;;4.10;99.90;;;;;;5054791;28;20036;-74
2022/01/29 07:24:08;;;;;;;76.13;32.63;;;4.50;99.90;;;;;;5036707;28;20108;-74
2022/01/29 07:26:34;;;;;;;50.22;23.00;;;4.80;99.90;;;;;;5054932;28;20459;-74
2022/01/29 07:29:00;;;;;;;50.65;19.88;;;5.20;99.90;;;;;;5054933;28;20029;-75
2022/01/29 07:31:25;;;;;;;35.30;14.57;;;5.40;99.90;;;;;;5054835;28;20036;-74
2022/01/29 07:33:51;;;;;;;25.70;11.23;;;5.10;99.90;;;;;;5054837;28;20025;-74
2022/01/29 07:36:17;;;;;;;27.75;9.35;;;4.90;99.90;;;;;;5054997;28;20082;-74
2022/01/29 07:38:43;;;;;;;27.60;10.27;;;4.60;99.90;;;;;;5036552;28;20025;-73
2022/01/29 07:41:09;;;;;;;43.17;18.10;;;4.10;99.90;;;;;;5036811;28;20467;-73
2022/01/29 07:43:35;;;;;;;78.50;33.15;;;3.80;99.90;;;;;;5054030;28;20029;-73
2022/01/29 07:46:01;;;;;;;80.63;33.92;;;3.60;99.90;;;;;;5054813;28;20029;-73
2022/01/29 07:48:27;;;;;;;65.68;29.95;;;3.40;99.90;;;;;;5054590;28;20036;-72
2022/01/29 07:50:53;;;;;;;69.93;32.28;;;3.50;99.90;;;;;;5054238;28;20029;-73
2022/01/29 07:53:19;;;;;;;55.55;25.25;;;3.90;99.90;;;;;;5054481;28;20091;-73
2022/01/29 07:55:44;;;;;;;49.83;21.05;;;4.30;99.90;;;;;;5054154;28;20029;-73
2022/01/29 07:58:10;;;;;;;47.83;19.95;;;4.40;99.90;;;;;;5053786;28;20029;-74
2022/01/29 08:00:36;;;;;;;48.45;20.88;;;4.60;99.90;;;;;;5054339;28;20033;-73
2022/01/29 08:03:03;;;;;;;59.20;23.35;;;4.80;99.90;;;;;;5054306;28;20025;-74
2022/01/29 08:05:29;;;;;;;56.40;23.85;;;5.00;99.90;;;;;;5053955;28;20116;-74
2022/01/29 08:07:55;;;;;;;45.28;19.52;;;5.30;99.90;;;;;;5054163;28;20112;-74
2022/01/29 08:10:21;;;;;;;101.30;40.05;;;5.10;99.90;;;;;;5054263;28;20166;-75
2022/01/29 08:12:46;;;;;;;255.65;98.88;;;4.90;99.90;;;;;;5053858;28;20032;-75
2022/01/29 08:15:12;;;;;;;103.50;40.45;;;5.00;99.90;;;;;;5053624;28;20033;-75
2022/01/29 08:17:38;;;;;;;104.75;42.72;;;5.00;99.90;;;;;;5054002;28;20025;-76
2022/01/29 08:20:04;;;;;;;99.57;52.53;;;5.10;99.90;;;;;;5035909;28;20442;-76
2022/01/29 08:22:30;;;;;;;88.38;41.58;;;5.10;99.90;;;;;;5054254;28;20021;-74
2022/01/29 08:24:57;;;;;;;76.03;32.97;;;5.50;99.90;;;;;;5053700;28;20079;-74
2022/01/29 08:27:23;;;;;;;57.72;25.88;;;5.70;99.90;;;;;;5053626;28;20040;-75
2022/01/29 08:29:49;;;;;;;60.47;26.35;;;5.70;99.90;;;;;;5053342;28;20036;-76
2022/01/29 08:32:15;;;;;;;73.18;31.17;;;5.50;99.90;;;;;;5053819;28;20021;-74
2022/01/29 08:34:43;;;;;;;136.98;64.63;;;5.40;99.90;;;;;;5035616;28;20033;-75
2022/01/29 08:37:09;;;;;;;116.82;49.15;;;5.60;99.90;;;;;;5035893;28;20452;-74
2022/01/29 08:39:35;;;;;;;36.33;15.30;;;5.40;99.90;;;;;;5053395;28;20036;-75
2022/01/29 08:42:02;;;;;;;70.80;27.80;;;5.30;99.90;;;;;;5053439;28;20091;-75
2022/01/29 08:44:28;;;;;;;63.05;26.50;;;5.30;99.90;;;;;;5053700;28;20033;-75
2022/01/29 08:46:54;;;;;;;53.00;20.58;;;5.40;99.90;;;;;;5052984;28;20025;-74
2022/01/29 08:49:21;;;;;;;52.38;21.48;;;5.60;99.90;;;;;;5053496;28;20025;-75
2022/01/29 08:51:47;;;;;;;61.80;26.77;;;5.70;99.80;;;;;;5035681;28;20435;-74
2022/01/29 08:54:13;;;;;;;20.45;8.32;;;5.80;99.80;;;;;;5053272;28;20448;-74
2022/01/29 08:56:39;;;;;;;26.45;10.63;;;5.40;97.80;;;;;;5053495;28;20082;-75
2022/01/29 08:59:05;;;;;;;30.23;13.80;;;5.30;97.60;;;;;;5053567;28;20061;-74
2022/01/29 09:01:31;;;;;;;25.17;11.30;;;5.40;98.60;;;;;;5053496;28;20036;-74
2022/01/29 09:03:56;;;;;;;26.02;11.63;;;5.50;97.50;;;;;;5053441;28;20021;-74
2022/01/29 09:06:22;;;;;;;45.70;17.05;;;5.50;98.50;;;;;;5053351;28;20021;-74
2022/01/29 09:08:51;;;;;;;25.80;12.00;;;5.80;97.90;;;;;;5053027;28;20032;-74
2022/01/29 09:11:18;;;;;;;32.22;13.00;;;6.00;96.70;;;;;;5053499;28;20026;-74
2022/01/29 09:13:43;;;;;;;18.83;8.50;;;6.30;97.10;;;;;;5053024;28;20036;-75
2022/01/29 09:16:10;;;;;;;24.17;9.13;;;6.20;95.00;;;;;;5052658;28;20025;-75
2022/01/29 09:18:36;;;;;;;28.65;10.20;;;6.30;94.30;;;;;;5053345;28;20030;-74
2022/01/29 09:21:02;;;;;;;18.30;9.70;;;6.00;94.90;;;;;;5053322;28;20021;-75
2022/01/29 09:23:28;;;;;;;30.08;11.50;;;6.20;94.70;;;;;;5053369;28;20025;-75
2022/01/29 09:25:55;;;;;;;55.00;24.45;;;6.40;94.10;;;;;;5052861;28;20171;-74
2022/01/29 09:28:22;;;;;;;20.08;10.18;;;6.70;93.60;;;;;;5052580;28;20487;-74
2022/01/29 09:30:49;;;;;;;21.92;9.82;;;6.50;93.90;;;;;;5051511;28;20375;-74
2022/01/29 09:33:16;;;;;;;44.10;18.48;;;6.50;93.60;;;;;;5052154;28;20029;-73
2022/01/29 09:35:42;;;;;;;23.40;10.80;;;6.90;93.30;;;;;;5053031;28;20021;-74
2022/01/29 09:38:10;;;;;;;26.85;14.63;;;6.80;92.40;;;;;;5058066;28;20028;-73
2022/01/29 09:40:37;;;;;;;30.92;11.68;;;7.00;92.80;;;;;;5064657;28;20025;-74
2022/01/29 09:43:06;;;;;;;23.00;8.88;;;7.20;92.00;;;;;;5070863;28;20052;-74
2022/01/29 09:45:32;;;;;;;34.38;20.15;;;6.80;91.60;;;;;;5077250;28;20025;-74
2022/01/29 09:48:01;;;;;;;18.25;7.57;;;7.00;91.50;;;;;;5075554;28;20037;-74
2022/01/29 09:50:29;;;;;;;20.63;10.18;;;7.10;90.50;;;;;;5075828;28;20029;-75
2022/01/29 09:52:55;;;;;;;19.13;8.55;;;7.20;90.10;;;;;;5076138;28;20130;-74
2022/01/29 09:55:22;;;;;;;25.20;9.15;;;6.90;90.80;;;;;;5076245;28;20191;-74
2022/01/29 09:57:47;;;;;;;20.42;8.60;;;6.60;92.00;;;;;;5076232;28;20024;-74
2022/01/29 10:00:14;;;;;;;22.60;8.52;;;6.80;92.60;;;;;;5076438;28;20352;-74
2022/01/29 10:02:40;;;;;;;23.55;9.25;;;7.20;92.40;;;;;;5076839;28;20016;-74
2022/01/29 10:05:08;;;;;;;38.58;16.48;;;7.40;91.50;;;;;;5067441;28;20032;-75
2022/01/29 10:07:33;;;;;;;26.55;11.30;;;7.90;90.60;;;;;;5060995;28;20120;-75
2022/01/29 10:10:01;;;;;;;32.53;16.10;;;8.10;88.10;;;;;;5056509;28;20112;-75
2022/01/29 10:12:32;;;;;;;31.88;15.77;;;8.40;87.30;;;;;;5055817;28;20035;-76
2022/01/29 10:15:01;;;;;;;29.05;12.15;;;8.00;85.30;;;;;;5056360;28;20021;-75
2022/01/29 10:17:42;;;;;;;28.25;13.75;;;8.70;84.40;;;;;;5056290;28;20025;-74
2022/01/29 10:20:12;;;;;;;49.53;21.35;;;8.70;82.40;;;;;;5055991;28;20424;-74
2022/01/29 10:22:39;;;;;;;56.88;20.75;;;8.70;81.90;;;;;;5055938;28;20060;-75
2022/01/29 10:25:13;;;;;;;40.92;16.70;;;8.70;81.40;;;;;;5055855;28;20128;-75
2022/01/29 10:27:39;;;;;;;41.97;17.92;;;8.50;82.00;;;;;;5056281;28;20033;-75
2022/01/29 10:30:09;;;;;;;74.35;35.03;;;8.40;81.90;;;;;;5056035;28;20036;-73
2022/01/29 10:32:35;;;;;;;55.70;26.17;;;8.10;83.00;;;;;;5055662;28;20047;-73
2022/01/29 10:35:02;;;;;;;33.00;14.98;;;8.20;84.20;;;;;;5056348;28;20028;-75
2022/01/29 10:37:29;;;;;;;26.27;12.63;;;8.70;83.30;;;;;;5055561;28;20033;-76
2022/01/29 10:40:00;;;;;;;27.00;10.50;;;9.10;81.10;;;;;;5055209;28;20025;-74
2022/01/29 10:42:32;;;;;;;53.90;23.63;;;9.70;80.70;;;;;;5056117;28;20039;-74
2022/01/29 10:45:02;;;;;;;24.60;10.73;;;9.00;79.50;;;;;;5057403;28;20028;-73
2022/01/29 10:47:51;;;;;;;19.30;8.25;;;8.70;82.00;;;;;;5063783;28;20102;-74
2022/01/29 10:50:17;;;;;;;34.22;13.50;;;8.50;80.40;;;;;;5075812;28;20150;-74
2022/01/29 10:52:43;;;;;;;25.95;11.90;;;7.50;83.30;;;;;;5074348;28;20477;-75
2022/01/29 10:55:09;;;;;;;35.28;13.27;;;7.70;85.50;;;;;;5075579;28;20039;-74
2022/01/29 10:57:43;;;;;;;19.48;8.18;;;7.00;88.70;;;;;;5075317;28;20036;-74
2022/01/29 11:00:18;;;;;;;47.50;19.05;;;6.70;90.30;;;;;;5075361;28;20024;-74
2022/01/29 11:02:45;;;;;;;45.50;15.80;;;7.80;89.90;;;;;;5075490;28;20024;-74
2022/01/29 11:05:11;;;;;;;28.60;13.38;;;8.60;86.70;;;;;;5075460;28;20527;-76
2022/01/29 11:07:38;;;;;;;38.58;18.48;;;7.90;85.30;;;;;;5074975;28;20116;-75
2022/01/29 11:10:07;;;;;;;31.98;12.77;;;7.80;85.00;;;;;;5075095;28;20032;-75
2022/01/29 11:12:33;;;;;;;19.65;8.15;;;8.60;85.00;;;;;;5075633;28;20024;-74
2022/01/29 11:15:02;;;;;;;26.88;10.48;;;9.20;82.30;;;;;;5074572;28;20086;-75
2022/01/29 11:17:29;;;;;;;37.00;13.98;;;10.30;80.10;;;;;;5075350;28;20020;-74
2022/01/29 11:19:55;;;;;;;34.33;16.05;;;10.30;76.20;;;;;;5075138;28;20025;-75
2022/01/29 11:22:27;;;;;;;15.95;7.95;;;10.60;75.90;;;;;;5075046;28;20104;-75
2022/01/29 11:25:08;;;;;;;24.30;11.05;;;9.90;75.10;;;;;;5074902;28;20044;-75
2022/01/29 11:27:39;;;;;;;31.88;13.98;;;9.80;75.70;;;;;;5074355;28;20059;-74
2022/01/29 11:30:07;;;;;;;24.50;10.77;;;9.90;74.30;;;;;;5074663;28;20442;-75
2022/01/29 11:33:00;;;;;;;17.90;7.10;;;10.10;75.30;;;;;;5074486;28;20033;-75
2022/01/29 11:35:30;;;;;;;29.23;10.40;;;10.10;73.10;;;;;;5063563;28;20040;-75
2022/01/29 11:38:04;;;;;;;40.97;14.73;;;10.60;72.50;;;;;;5074944;28;20036;-74
2022/01/29 11:40:44;;;;;;;22.85;8.38;;;10.70;72.80;;;;;;5074766;28;20052;-74
2022/01/29 11:43:19;;;;;;;20.98;9.40;;;10.30;71.20;;;;;;5072825;28;20025;-75
2022/01/29 11:46:04;;;;;;;14.52;6.03;;;10.50;71.90;;;;;;5074321;28;20032;-74
2022/01/29 11:48:38;;;;;;;20.60;8.82;;;9.20;72.00;;;;;;5073831;28;20363;-75
2022/01/29 11:51:11;;;;;;;14.85;6.93;;;9.50;74.20;;;;;;5073693;28;20020;-75
2022/01/29 11:53:46;;;;;;;45.58;17.17;;;9.80;72.20;;;;;;5073792;28;20024;-75
2022/01/29 11:56:34;;;;;;;41.03;16.05;;;9.90;71.40;;;;;;5070499;28;20117;-74
2022/01/29 11:59:19;;;;;;;17.83;8.60;;;10.00;71.60;;;;;;5053602;28;20021;-74
2022/01/29 12:01:52;;;;;;;15.75;7.18;;;9.80;71.00;;;;;;5053756;28;20025;-75
2022/01/29 12:04:20;;;;;;;14.38;6.10;;;9.30;71.20;;;;;;5052212;28;20059;-75
2022/01/29 12:07:17;;;;;;;16.45;8.40;;;9.20;71.50;;;;;;5053306;28;20036;-75
2022/01/29 12:09:52;;;;;;;29.27;14.57;;;8.80;71.10;;;;;;5035491;28;20029;-74
2022/01/29 12:12:23;;;;;;;34.45;17.88;;;9.00;71.40;;;;;;5053467;28;20024;-74
2022/01/29 12:14:52;;;;;;;56.25;25.52;;;9.40;69.20;;;;;;5053271;28;20028;-75
2022/01/29 12:17:57;;;;;;;113.18;46.67;;;9.50;71.20;;;;;;5052969;28;20459;-74
2022/01/29 12:20:25;;;;;;;47.38;22.85;;;9.60;69.50;;;;;;5053168;28;20029;-74
2022/01/29 12:22:52;;;;;;;99.63;34.55;;;9.20;69.80;;;;;;5053417;28;20029;-75
2022/01/29 12:25:23;;;;;;;36.05;13.88;;;8.70;69.90;;;;;;5052705;28;20049;-75
2022/01/29 12:27:51;;;;;;;19.27;8.23;;;8.50;70.00;;;;;;5053258;28;20479;-75
2022/01/29 12:30:21;;;;;;;63.75;27.33;;;8.50;69.90;;;;;;5053054;28;20032;-74
2022/01/29 12:33:11;;;;;;;50.00;20.35;;;8.30;70.70;;;;;;5052728;28;20021;-75
2022/01/29 12:36:12;;;;;;;44.88;18.83;;;8.10;71.90;;;;;;5053148;28;20463;-74
2022/01/29 12:38:42;;;;;;;23.02;8.07;;;8.10;73.60;;;;;;4952826;29;20070;-74
2022/01/29 12:41:11;;;;;;;26.13;9.77;;;7.60;72.30;;;;;;4952917;29;20094;-74
2022/01/29 12:44:08;;;;;;;25.00;9.40;;;7.50;73.30;;;;;;4952729;29;20079;-74
2022/01/29 12:46:30;;;;;;;62.75;24.15;;;7.20;74.20;;;;;;4952002;29;20047;-74
2022/01/29 12:49:02;;;;;;;36.15;14.27;;;7.30;76.00;;;;;;4952769;28;20059;-74
2022/01/29 12:51:29;;;;;;;114.40;47.17;;;7.10;75.50;;;;;;4952804;28;20458;-75
2022/01/29 12:54:00;;;;;;;76.70;31.90;;;7.30;75.60;;;;;;4952660;29;20051;-75
2022/01/29 12:56:34;;;;;;;52.42;22.42;;;7.20;74.50;;;;;;4952595;29;20031;-74
2022/01/29 12:59:02;;;;;;;42.70;18.15;;;7.20;74.90;;;;;;4952286;28;20035;-74
2022/01/29 13:01:28;;;;;;;26.75;10.77;;;7.10;75.80;;;;;;4937269;29;20035;-74